Latest Weather Observations for South Channel Island

IDV60901

Issued at 7:41 pm EST Sunday 26 April 2015 (issued every 10 minutes, with the page automatically refreshed every 10 minutes)

About weather observations | Map of Melbourne area stations | Latest observations for Melbourne area | Other Formats
Station Details ID: 086344 Name: SOUTH CHANNEL ISLAND Lat: -38.31 Lon: 144.80 Height: 9.0 m
Data from the previous 72 hours. | See also: Recent months for locations in Victoria
Date/Time
EST
Tmp

°C
App
Tmp
°C
Dew
Point
°C
Rel
Hum
%
Delta-T

°C
Wind Press
QNH
hPa
Press
MSL
hPa
Rain
since
9 am
mm
Dir
 
Spd
km/h
Gust
km/h
Spd
kts
Gust
kts
26/07:30pm - - - - - SW 41 48 22 26 - - -
26/07:00pm - - - - - WSW 43 56 23 30 - - -
26/06:30pm - - - - - WSW 35 44 19 24 - - -
26/06:00pm - - - - - WSW 43 54 23 29 - - -
26/05:30pm - - - - - WSW 50 59 27 32 - - -
26/05:00pm - - - - - SW 43 52 23 28 - - -
26/04:30pm - - - - - WSW 43 50 23 27 - - -
26/04:00pm - - - - - WSW 44 54 24 29 - - -
26/03:30pm - - - - - SW 48 57 26 31 - - -
26/03:00pm - - - - - WSW 46 54 25 29 - - -
26/02:30pm - - - - - WSW 50 61 27 33 - - -
26/02:04pm - - - - - SW 44 56 24 30 - - -
26/02:00pm - - - - - SW 43 56 23 30 - - -
26/01:30pm - - - - - SW 37 44 20 24 - - -
26/01:00pm - - - - - WSW 44 54 24 29 - - -
26/12:30pm - - - - - SW 39 48 21 26 - - -
26/12:00pm - - - - - SW 39 50 21 27 - - -
26/11:33am - - - - - SW 37 56 20 30 - - -
26/11:30am - - - - - SW 35 44 19 24 - - -
26/11:15am - - - - - SW 35 54 19 29 - - -
26/11:00am - - - - - SW 46 54 25 29 - - -
26/10:54am - - - - - SW 43 54 23 29 - - -
26/10:30am - - - - - SSW 37 48 20 26 - - -
26/10:00am - - - - - SSW 37 48 20 26 - - -
26/09:30am - - - - - SSW 39 50 21 27 - - -
26/09:00am - - - - - SSW 43 52 23 28 - - -
26/08:30am - - - - - SSW 37 48 20 26 - - -
26/08:00am - - - - - SSW 37 50 20 27 - - -
26/07:31am - - - - - SSW 41 59 22 32 - - -
26/07:30am - - - - - SSW 39 50 21 27 - - -
26/07:00am - - - - - SW 41 56 22 30 - - -
26/06:30am - - - - - SSW 41 48 22 26 - - -
26/06:00am - - - - - SSW 39 48 21 26 - - -
26/05:30am - - - - - SW 46 56 25 30 - - -
26/05:00am - - - - - SSW 43 52 23 28 - - -
26/04:30am - - - - - SW 41 50 22 27 - - -
26/04:00am - - - - - SSW 39 48 21 26 - - -
26/03:30am - - - - - SW 39 48 21 26 - - -
26/03:00am - - - - - SSW 41 48 22 26 - - -
26/02:30am - - - - - SW 39 46 21 25 - - -
26/02:00am - - - - - SW 35 41 19 22 - - -
26/01:30am - - - - - SW 39 46 21 25 - - -
26/01:00am - - - - - SW 37 46 20 25 - - -
26/12:30am - - - - - SW 37 44 20 24 - - -
26/12:00am - - - - - SW 43 50 23 27 - - -
 
Date/Time
EST
Tmp

°C
App
Tmp
°C
Dew
Point
°C
Rel
Hum
%
Delta-T

°C
Wind Press
QNH
hPa
Press
MSL
hPa
Rain
since
9 am
mm
Dir
 
Spd
km/h
Gust
km/h
Spd
kts
Gust
kts
25/11:30pm - - - - - SSW 50 57 27 31 - - -
25/11:00pm - - - - - SW 43 52 23 28 - - -
25/10:30pm - - - - - SSW 44 52 24 28 - - -
25/10:00pm - - - - - SW 44 56 24 30 - - -
25/09:30pm - - - - - SSW 52 61 28 33 - - -
25/09:00pm - - - - - SSW 48 57 26 31 - - -
25/08:30pm - - - - - SW 52 59 28 32 - - -
25/08:00pm - - - - - SSW 56 63 30 34 - - -
25/07:30pm - - - - - SSW 48 59 26 32 - - -
25/07:00pm - - - - - SSW 50 57 27 31 - - -
25/06:30pm - - - - - SSW 46 57 25 31 - - -
25/06:00pm - - - - - SSW 46 59 25 32 - - -
25/05:30pm - - - - - SSW 46 54 25 29 - - -
25/05:00pm - - - - - SSW 39 46 21 25 - - -
25/04:30pm - - - - - SSW 37 44 20 24 - - -
25/04:00pm - - - - - SSW 35 39 19 21 - - -
25/03:30pm - - - - - SSW 33 39 18 21 - - -
25/03:00pm - - - - - SSW 30 35 16 19 - - -
25/02:30pm - - - - - S 30 35 16 19 - - -
25/02:00pm - - - - - S 28 30 15 16 - - -
25/01:30pm - - - - - S 28 32 15 17 - - -
25/01:00pm - - - - - S 28 33 15 18 - - -
25/12:30pm - - - - - S 32 33 17 18 - - -
25/12:00pm - - - - - S 32 35 17 19 - - -
25/11:30am - - - - - S 30 35 16 19 - - -
25/11:00am - - - - - S 24 28 13 15 - - -
25/10:30am - - - - - SW 15 19 8 10 - - -
25/10:00am - - - - - WSW 20 26 11 14 - - -
25/09:30am - - - - - WSW 24 28 13 15 - - -
25/09:00am - - - - - SW 24 28 13 15 - - -
25/08:30am - - - - - WSW 17 22 9 12 - - -
25/08:00am - - - - - W 20 24 11 13 - - -
25/07:30am - - - - - W 30 33 16 18 - - -
25/07:00am - - - - - WNW 32 35 17 19 - - -
25/06:30am - - - - - WNW 28 32 15 17 - - -
25/06:00am - - - - - WNW 26 30 14 16 - - -
25/05:30am - - - - - NW 26 30 14 16 - - -
25/05:00am - - - - - WNW 26 30 14 16 - - -
25/04:30am - - - - - WNW 24 30 13 16 - - -
25/04:00am - - - - - WNW 22 26 12 14 - - -
25/03:30am - - - - - WNW 24 26 13 14 - - -
25/03:00am - - - - - NW 26 30 14 16 - - -
25/02:30am - - - - - NW 19 24 10 13 - - -
25/02:00am - - - - - NW 24 28 13 15 - - -
25/01:30am - - - - - NW 30 32 16 17 - - -
25/01:00am - - - - - NW 20 26 11 14 - - -
25/12:30am - - - - - WNW 22 26 12 14 - - -
25/12:00am - - - - - NW 26 30 14 16 - - -
 
Date/Time
EST
Tmp

°C
App
Tmp
°C
Dew
Point
°C
Rel
Hum
%
Delta-T

°C
Wind Press
QNH
hPa
Press
MSL
hPa
Rain
since
9 am
mm
Dir
 
Spd
km/h
Gust
km/h
Spd
kts
Gust
kts
24/11:30pm - - - - - WNW 17 20 9 11 - - -
24/11:00pm - - - - - W 19 24 10 13 - - -
24/10:30pm - - - - - WNW 24 28 13 15 - - -
24/10:00pm - - - - - WNW 26 32 14 17 - - -
24/09:30pm - - - - - WNW 26 39 14 21 - - -
24/09:26pm - - - - - NE 13 37 7 20 - - -
24/09:00pm - - - - - SE 9 11 5 6 - - -
24/08:30pm - - - - - SSE 11 13 6 7 - - -
24/08:00pm - - - - - SSE 11 13 6 7 - - -
24/07:30pm - - - - - S 15 17 8 9 - - -
24/07:00pm - - - - - SSW 19 20 10 11 - - -
24/06:30pm - - - - - SSW 19 22 10 12 - - -
24/06:00pm - - - - - SSW 19 20 10 11 - - -
24/05:30pm - - - - - SSW 17 19 9 10 - - -
24/05:00pm - - - - - SW 17 20 9 11 - - -
24/04:30pm - - - - - W 17 19 9 10 - - -
24/04:00pm - - - - - WNW 15 17 8 9 - - -
24/03:30pm - - - - - WNW 20 24 11 13 - - -
24/03:00pm - - - - - W 26 30 14 16 - - -
24/02:30pm - - - - - WNW 26 32 14 17 - - -
24/02:00pm - - - - - W 26 30 14 16 - - -
24/01:30pm - - - - - WNW 24 26 13 14 - - -
24/01:00pm - - - - - NW 26 30 14 16 - - -
24/12:30pm - - - - - NNW 24 30 13 16 - - -
24/12:00pm - - - - - NNW 24 28 13 15 - - -
24/11:30am - - - - - NNW 24 26 13 14 - - -
24/11:00am - - - - - NW 19 22 10 12 - - -
24/10:30am - - - - - NW 20 24 11 13 - - -
24/10:00am - - - - - NW 26 28 14 15 - - -
24/09:30am - - - - - NW 28 32 15 17 - - -
24/09:00am - - - - - WNW 28 32 15 17 - - -
24/08:30am - - - - - NW 24 28 13 15 - - -
24/08:00am - - - - - NW 19 24 10 13 - - -
24/07:30am - - - - - NW 20 24 11 13 - - -
24/07:00am - - - - - WNW 20 22 11 12 - - -
24/06:30am - - - - - WNW 22 26 12 14 - - -
24/06:00am - - - - - NW 15 17 8 9 - - -
24/05:30am - - - - - NW 17 19 9 10 - - -
24/05:00am - - - - - NW 17 19 9 10 - - -
24/04:30am - - - - - NW 15 17 8 9 - - -
24/04:00am - - - - - NW 15 15 8 8 - - -
24/03:30am - - - - - NNW 15 17 8 9 - - -
24/03:00am - - - - - N 11 13 6 7 - - -
24/02:30am - - - - - NE 13 15 7 8 - - -
24/02:00am - - - - - ENE 13 15 7 8 - - -
24/01:30am - - - - - ENE 19 22 10 12 - - -
24/01:00am - - - - - E 20 22 11 12 - - -
24/12:30am - - - - - E 20 22 11 12 - - -
24/12:00am - - - - - E 20 26 11 14 - - -
 
Date/Time
EST
Tmp

°C
App
Tmp
°C
Dew
Point
°C
Rel
Hum
%
Delta-T

°C
Wind Press
QNH
hPa
Press
MSL
hPa
Rain
since
9 am
mm
Dir
 
Spd
km/h
Gust
km/h
Spd
kts
Gust
kts
23/11:30pm - - - - - SE 11 17 6 9 - - -
23/11:00pm - - - - - SE 17 20 9 11 - - -
23/10:30pm - - - - - SE 13 17 7 9 - - -
23/10:00pm - - - - - ESE 11 13 6 7 - - -
23/09:30pm - - - - - ESE 17 19 9 10 - - -
23/09:00pm - - - - - ESE 22 26 12 14 - - -
23/08:30pm - - - - - ESE 28 32 15 17 - - -
23/08:00pm - - - - - SE 24 28 13 15 - - -

Latest Capital City Observations: Canberra | Sydney | Melbourne | Brisbane | Adelaide | Perth | Hobart | Darwin

Other Formats:

Comma delimited format used in spreadsheet applications
http://www.bom.gov.au/fwo/IDV60901/IDV60901.94853.axf

JavaScript Object Notation format (JSON) in row-major order
http://www.bom.gov.au/fwo/IDV60901/IDV60901.94853.json